Time;durP1;ratioP1;P1;durP2;ratioP2;P2;SDS_P1;SDS_P2;PMS_P1;PMS_P2;Temp;Humidity;BMP_temperature;BMP_pressure;BME280_temperature;BME280_humidity;BME280_pressure;Samples;Min_cycle;Max_cycle;Signal;HPM_P1;HPM_P2
2023/09/10 00:00:42;;;;;;;13.90;9.52;;;20.90;90.70;;;;;;6212276;23;20012;-80
2023/09/10 00:03:28;;;;;;;14.00;9.27;;;20.90;90.80;;;;;;6212921;23;20007;-76
2023/09/10 00:06:14;;;;;;;13.25;9.60;;;20.90;91.10;;;;;;6212299;23;20008;-76
2023/09/10 00:09:00;;;;;;;14.10;10.05;;;20.80;90.90;;;;;;6212649;23;20386;-77
2023/09/10 00:11:46;;;;;;;13.48;9.75;;;20.80;91.00;;;;;;6209740;23;20090;-76
2023/09/10 00:14:32;;;;;;;13.52;10.02;;;20.80;91.10;;;;;;6212354;23;20032;-77
2023/09/10 00:17:18;;;;;;;11.50;9.15;;;20.70;91.20;;;;;;6210907;23;20015;-77
2023/09/10 00:20:10;;;;;;;13.05;9.18;;;20.70;91.40;;;;;;6213112;23;20043;-77
2023/09/10 00:22:57;;;;;;;15.25;10.02;;;20.70;91.50;;;;;;6211420;23;20381;-77
2023/09/10 00:25:42;;;;;;;13.05;9.75;;;20.60;91.70;;;;;;6211541;23;20079;-71
2023/09/10 00:28:28;;;;;;;12.90;9.68;;;20.60;91.80;;;;;;6211248;23;20115;-71
2023/09/10 00:31:14;;;;;;;12.57;9.63;;;20.60;91.90;;;;;;6212192;23;20023;-71
2023/09/10 00:34:00;;;;;;;12.60;10.00;;;20.60;92.00;;;;;;6211853;23;20001;-71
2023/09/10 00:36:46;;;;;;;12.35;9.63;;;20.50;92.10;;;;;;6211544;23;20427;-71
2023/09/10 00:39:32;;;;;;;12.25;8.88;;;20.50;92.10;;;;;;6211816;23;20098;-71
2023/09/10 00:42:18;;;;;;;12.95;9.10;;;20.50;92.20;;;;;;6212448;23;20008;-71
2023/09/10 00:45:06;;;;;;;13.30;10.32;;;20.50;92.30;;;;;;6211893;23;20088;-71
2023/09/10 00:47:53;;;;;;;16.80;11.27;;;20.40;92.40;;;;;;6209972;23;20043;-71
2023/09/10 00:50:39;;;;;;;16.25;12.00;;;20.40;92.50;;;;;;6210123;23;20386;-71
2023/09/10 00:53:25;;;;;;;16.40;12.00;;;20.40;92.60;;;;;;6212199;23;20501;-71
2023/09/10 00:56:12;;;;;;;15.80;11.43;;;20.30;92.70;;;;;;6209759;23;20059;-71
2023/09/10 00:58:59;;;;;;;16.27;11.50;;;20.30;92.80;;;;;;6211067;23;20350;-71
2023/09/10 01:01:45;;;;;;;15.10;10.80;;;20.30;92.80;;;;;;6211296;23;20039;-71
2023/09/10 01:04:31;;;;;;;14.45;11.13;;;20.20;92.80;;;;;;6210375;23;20092;-71
2023/09/10 01:07:17;;;;;;;14.60;10.55;;;20.20;92.90;;;;;;6210341;23;20084;-71
2023/09/10 01:10:06;;;;;;;16.85;11.88;;;20.20;93.10;;;;;;6210088;23;20087;-71
2023/09/10 01:13:05;;;;;;;17.23;12.25;;;20.10;93.30;;;;;;6210116;23;20396;-73
2023/09/10 01:16:37;;;;;;;14.35;10.90;;;20.10;93.50;;;;;;6209937;23;20019;-73
2023/09/10 01:19:39;;;;;;;15.30;11.63;;;20.10;93.40;;;;;;6210708;23;20462;-73
2023/09/10 01:22:51;;;;;;;16.95;10.43;;;20.00;93.60;;;;;;6211182;23;20334;-72
2023/09/10 01:25:37;;;;;;;15.48;11.82;;;20.00;93.60;;;;;;6211690;23;20005;-72
2023/09/10 01:28:23;;;;;;;14.43;10.55;;;19.90;93.80;;;;;;6209806;23;20036;-73
2023/09/10 01:31:09;;;;;;;15.25;10.55;;;19.90;93.90;;;;;;6209700;23;20400;-73
2023/09/10 01:33:58;;;;;;;13.98;10.65;;;19.90;94.00;;;;;;6210924;23;20143;-73
2023/09/10 01:36:52;;;;;;;18.75;11.43;;;19.90;94.20;;;;;;6211019;23;20005;-72
2023/09/10 01:39:41;;;;;;;13.53;10.50;;;19.90;94.40;;;;;;6210162;23;20004;-72
2023/09/10 01:42:27;;;;;;;16.73;11.13;;;19.90;94.40;;;;;;6214354;23;20228;-71
2023/09/10 01:45:13;;;;;;;17.02;11.20;;;19.80;94.40;;;;;;6217894;23;20050;-72
2023/09/10 01:48:00;;;;;;;13.43;10.30;;;19.80;94.60;;;;;;6212588;23;20004;-72
2023/09/10 01:50:46;;;;;;;16.42;12.02;;;19.80;94.60;;;;;;6210588;23;20084;-73
2023/09/10 01:53:32;;;;;;;15.20;11.60;;;19.80;94.60;;;;;;6210287;23;20031;-71
2023/09/10 01:56:18;;;;;;;15.80;12.07;;;19.70;94.70;;;;;;6210990;23;20019;-71
2023/09/10 01:59:04;;;;;;;19.63;11.63;;;19.70;94.90;;;;;;6212227;23;20008;-71
2023/09/10 02:01:50;;;;;;;15.93;11.20;;;19.70;94.80;;;;;;6209594;23;20087;-75
2023/09/10 02:04:36;;;;;;;16.10;10.77;;;19.70;95.10;;;;;;6209744;23;20030;-76
2023/09/10 02:07:22;;;;;;;15.90;10.90;;;19.60;95.10;;;;;;6210366;23;20000;-75
2023/09/10 02:10:08;;;;;;;15.23;10.52;;;19.60;95.30;;;;;;6210283;23;20331;-75
2023/09/10 02:12:54;;;;;;;14.70;11.07;;;19.60;95.40;;;;;;6210080;23;20016;-75
2023/09/10 02:15:40;;;;;;;14.07;10.65;;;19.60;95.40;;;;;;6210783;23;20330;-75
2023/09/10 02:18:28;;;;;;;15.43;11.05;;;19.50;95.50;;;;;;6209809;23;20338;-79
2023/09/10 02:21:14;;;;;;;14.20;10.75;;;19.50;95.50;;;;;;6209842;23;20008;-84
2023/09/10 02:24:00;;;;;;;17.60;12.25;;;19.50;95.60;;;;;;6210859;23;20315;-83
2023/09/10 02:26:46;;;;;;;15.52;10.43;;;19.50;95.80;;;;;;6210104;23;20047;-77
2023/09/10 02:29:32;;;;;;;15.15;11.07;;;19.50;95.80;;;;;;6209086;23;20489;-75
2023/09/10 02:32:18;;;;;;;15.63;11.05;;;19.40;95.90;;;;;;6209580;23;20021;-78
2023/09/10 02:35:04;;;;;;;16.35;11.73;;;19.50;96.10;;;;;;6210111;23;20036;-78
2023/09/10 02:37:50;;;;;;;16.60;11.93;;;19.50;96.10;;;;;;6211934;23;20019;-76
2023/09/10 02:40:36;;;;;;;15.80;11.38;;;19.40;96.20;;;;;;6211249;23;20001;-76
2023/09/10 02:43:22;;;;;;;15.85;11.50;;;19.40;96.50;;;;;;6211484;23;20346;-76
2023/09/10 02:46:08;;;;;;;14.65;11.40;;;19.40;96.30;;;;;;6211344;23;20000;-76
2023/09/10 02:48:54;;;;;;;16.17;11.93;;;19.40;96.30;;;;;;6212894;23;20063;-76
2023/09/10 02:51:40;;;;;;;15.52;11.13;;;19.40;96.40;;;;;;6211646;23;20022;-77
2023/09/10 02:54:27;;;;;;;14.63;10.93;;;19.40;96.50;;;;;;6210392;23;20144;-77
2023/09/10 02:57:13;;;;;;;16.08;12.07;;;19.30;96.60;;;;;;6211949;23;20020;-76
2023/09/10 02:59:59;;;;;;;14.45;11.15;;;19.30;96.70;;;;;;6212122;23;20032;-76
2023/09/10 03:02:45;;;;;;;18.13;11.60;;;19.30;96.70;;;;;;6212040;23;20023;-75
2023/09/10 03:05:34;;;;;;;13.10;10.95;;;19.30;96.70;;;;;;6210701;23;20001;-75
2023/09/10 03:08:20;;;;;;;15.00;11.38;;;19.30;96.80;;;;;;6210816;23;20009;-76
2023/09/10 03:11:06;;;;;;;13.40;10.75;;;19.30;96.90;;;;;;6212064;23;20013;-75
2023/09/10 03:13:52;;;;;;;15.93;11.68;;;19.30;97.00;;;;;;6211974;23;20008;-75
2023/09/10 03:16:39;;;;;;;12.38;10.75;;;19.20;96.90;;;;;;6212163;23;20015;-70
2023/09/10 03:19:25;;;;;;;14.00;10.70;;;19.20;97.00;;;;;;6212045;23;20420;-70
2023/09/10 03:22:11;;;;;;;18.48;10.93;;;19.20;97.10;;;;;;6211905;23;20712;-70
2023/09/10 03:24:57;;;;;;;16.95;11.32;;;19.20;97.20;;;;;;6210611;23;20080;-71
2023/09/10 03:27:43;;;;;;;17.58;11.20;;;19.20;97.40;;;;;;6212221;23;20009;-71
2023/09/10 03:30:29;;;;;;;13.55;11.07;;;19.20;97.30;;;;;;6212287;23;20009;-71
2023/09/10 03:33:15;;;;;;;13.45;10.48;;;19.10;97.40;;;;;;6211869;23;20019;-72
2023/09/10 03:36:01;;;;;;;15.60;10.90;;;19.10;97.30;;;;;;6211231;23;20043;-72
2023/09/10 03:38:47;;;;;;;15.48;10.82;;;19.10;97.50;;;;;;6210462;23;20051;-71
2023/09/10 03:41:33;;;;;;;15.75;11.60;;;19.10;97.60;;;;;;6211119;23;20008;-71
2023/09/10 03:44:19;;;;;;;15.57;11.25;;;19.10;97.70;;;;;;6212630;23;20055;-70
2023/09/10 03:47:05;;;;;;;14.68;11.30;;;19.00;97.70;;;;;;6210714;23;20044;-70
2023/09/10 03:49:51;;;;;;;13.23;10.55;;;19.00;97.80;;;;;;6211022;23;20005;-71
2023/09/10 03:52:37;;;;;;;16.67;11.70;;;19.00;97.80;;;;;;6211134;23;20020;-71
2023/09/10 03:55:24;;;;;;;15.57;11.85;;;19.00;97.90;;;;;;6211532;23;20024;-71
2023/09/10 03:58:10;;;;;;;16.73;12.02;;;18.90;97.90;;;;;;6211701;23;20425;-71
2023/09/10 04:00:57;;;;;;;14.88;11.48;;;18.90;98.00;;;;;;6210896;23;20351;-72
2023/09/10 04:03:43;;;;;;;15.60;11.57;;;18.90;98.00;;;;;;6210445;23;20136;-71
2023/09/10 04:06:29;;;;;;;13.80;11.95;;;18.90;98.10;;;;;;6210654;23;20004;-71
2023/09/10 04:09:15;;;;;;;14.23;11.27;;;18.90;98.10;;;;;;6212184;23;20497;-71
2023/09/10 04:12:01;;;;;;;17.73;12.38;;;18.80;98.10;;;;;;6210917;23;20345;-71
2023/09/10 04:14:47;;;;;;;16.25;11.05;;;18.80;98.20;;;;;;6211073;23;20488;-71
2023/09/10 04:17:33;;;;;;;16.80;13.00;;;18.80;98.30;;;;;;6210728;23;20013;-71
2023/09/10 04:20:20;;;;;;;16.38;11.75;;;18.80;98.30;;;;;;6211168;23;20035;-71
2023/09/10 04:23:06;;;;;;;13.77;11.88;;;18.70;98.30;;;;;;6211248;23;20054;-72
2023/09/10 04:25:52;;;;;;;16.45;12.20;;;18.70;98.40;;;;;;6211936;23;20011;-77
2023/09/10 04:28:39;;;;;;;18.38;12.40;;;18.70;98.40;;;;;;6210456;23;20097;-77
2023/09/10 04:31:25;;;;;;;15.65;11.73;;;18.70;98.40;;;;;;6210995;23;20542;-78
2023/09/10 04:34:11;;;;;;;17.02;11.63;;;18.60;98.30;;;;;;6211028;23;20376;-77
2023/09/10 04:36:57;;;;;;;16.98;10.93;;;18.60;98.40;;;;;;6210866;23;20339;-77
2023/09/10 04:39:42;;;;;;;15.45;11.07;;;18.60;98.40;;;;;;6210720;23;20011;-78
2023/09/10 04:42:28;;;;;;;17.13;11.90;;;18.60;98.40;;;;;;6210893;23;20004;-71
2023/09/10 04:45:14;;;;;;;16.50;11.82;;;18.60;98.60;;;;;;6210666;23;20339;-73
2023/09/10 04:48:02;;;;;;;15.43;11.88;;;18.60;98.70;;;;;;6210521;23;20018;-75
2023/09/10 04:50:48;;;;;;;13.98;11.32;;;18.60;98.70;;;;;;6209973;23;20009;-76
2023/09/10 04:53:35;;;;;;;15.32;11.80;;;18.60;98.80;;;;;;6210396;23;20490;-75
2023/09/10 04:56:21;;;;;;;13.90;11.00;;;18.60;98.80;;;;;;6209541;23;20127;-72
2023/09/10 04:59:07;;;;;;;12.40;10.55;;;18.60;98.80;;;;;;6209296;23;20179;-72
2023/09/10 05:01:53;;;;;;;14.40;11.20;;;18.60;98.80;;;;;;6209971;23;20066;-72
2023/09/10 05:04:39;;;;;;;15.55;11.60;;;18.60;98.80;;;;;;6210827;23;20028;-72
2023/09/10 05:07:25;;;;;;;14.98;10.98;;;18.60;98.90;;;;;;6212536;23;20104;-72
2023/09/10 05:10:11;;;;;;;17.42;12.02;;;18.60;98.90;;;;;;6219235;23;20009;-73
2023/09/10 05:12:57;;;;;;;15.65;12.13;;;18.60;98.90;;;;;;6216927;23;20020;-72
2023/09/10 05:15:47;;;;;;;15.45;11.23;;;18.60;98.90;;;;;;6210363;23;20131;-72
2023/09/10 05:18:33;;;;;;;14.27;11.57;;;18.60;99.00;;;;;;6210908;23;20008;-72
2023/09/10 05:21:20;;;;;;;15.75;11.55;;;18.70;99.10;;;;;;6210189;23;20019;-72
2023/09/10 05:24:07;;;;;;;16.00;11.77;;;18.70;99.00;;;;;;6211359;23;20468;-73
2023/09/10 05:26:53;;;;;;;15.13;11.77;;;18.70;99.10;;;;;;6208696;23;20009;-72
2023/09/10 05:29:39;;;;;;;16.75;11.48;;;18.70;99.10;;;;;;6211210;23;20522;-73
2023/09/10 05:32:26;;;;;;;14.18;11.63;;;18.80;99.20;;;;;;6210018;23;20034;-72
2023/09/10 05:35:12;;;;;;;18.42;12.30;;;18.80;99.20;;;;;;6209796;23;20129;-72
2023/09/10 05:37:58;;;;;;;16.70;11.00;;;18.80;99.20;;;;;;6209795;23;20357;-72
2023/09/10 05:40:44;;;;;;;16.25;11.75;;;18.90;99.20;;;;;;6208405;23;20469;-73
2023/09/10 05:43:30;;;;;;;17.35;12.48;;;18.90;99.20;;;;;;6210590;23;20008;-72
2023/09/10 05:46:17;;;;;;;14.35;10.95;;;18.90;99.20;;;;;;6209907;23;20008;-74
2023/09/10 05:49:03;;;;;;;16.45;12.20;;;19.00;99.20;;;;;;6210004;23;20093;-76
2023/09/10 05:51:49;;;;;;;14.43;11.23;;;19.00;99.20;;;;;;6209609;23;20383;-76
2023/09/10 05:54:35;;;;;;;16.83;12.23;;;19.10;99.30;;;;;;6208677;23;20005;-74
2023/09/10 05:57:21;;;;;;;17.30;12.18;;;19.10;99.30;;;;;;6209914;23;20052;-74
2023/09/10 06:00:07;;;;;;;19.67;13.88;;;19.10;99.20;;;;;;6209673;23;20005;-75
2023/09/10 06:02:53;;;;;;;15.38;11.88;;;19.10;99.20;;;;;;6210494;23;20009;-75
2023/09/10 06:05:39;;;;;;;17.05;12.30;;;19.20;99.10;;;;;;6209785;23;20063;-86
2023/09/10 06:08:25;;;;;;;17.02;12.35;;;19.20;99.10;;;;;;6210770;23;20071;-88
2023/09/10 06:11:11;;;;;;;17.75;12.40;;;19.30;99.20;;;;;;6210262;23;20008;-90
2023/09/10 06:13:57;;;;;;;17.45;12.55;;;19.30;99.10;;;;;;6212910;23;20039;-89
2023/09/10 06:16:43;;;;;;;14.70;11.45;;;19.40;99.10;;;;;;6211878;23;20008;-89
2023/09/10 06:19:29;;;;;;;14.95;11.50;;;19.40;99.00;;;;;;6211866;23;20026;-89
2023/09/10 06:22:15;;;;;;;16.02;12.00;;;19.50;99.00;;;;;;6214126;23;20355;-90
2023/09/10 06:25:01;;;;;;;15.38;11.85;;;19.50;98.90;;;;;;6214070;23;20430;-89
2023/09/10 06:27:47;;;;;;;17.27;12.82;;;19.60;98.90;;;;;;6211344;23;20015;-83
2023/09/10 06:30:33;;;;;;;17.42;12.95;;;19.60;98.90;;;;;;6209443;23;20001;-78
2023/09/10 06:33:18;;;;;;;16.08;12.23;;;19.70;98.80;;;;;;6210013;23;20012;-78
2023/09/10 06:36:05;;;;;;;18.58;11.70;;;19.70;98.70;;;;;;6210028;23;20008;-79
2023/09/10 06:38:51;;;;;;;15.63;11.60;;;19.80;98.90;;;;;;6208924;23;20498;-78
2023/09/10 06:41:37;;;;;;;14.38;10.73;;;19.90;98.70;;;;;;6209745;23;20027;-78
2023/09/10 06:44:23;;;;;;;16.52;11.52;;;19.90;98.50;;;;;;6210691;23;20001;-78
2023/09/10 06:47:10;;;;;;;15.55;11.45;;;20.00;98.40;;;;;;6210454;23;20036;-78
2023/09/10 06:49:56;;;;;;;17.35;11.77;;;20.10;98.30;;;;;;6209076;23;20083;-78
2023/09/10 06:52:42;;;;;;;15.77;10.52;;;20.10;98.20;;;;;;6209940;23;20107;-78
2023/09/10 06:55:28;;;;;;;16.63;12.60;;;20.20;98.20;;;;;;6210111;23;20008;-82
2023/09/10 06:58:17;;;;;;;17.38;12.45;;;20.30;98.20;;;;;;6209516;23;20020;-84
2023/09/10 07:01:08;;;;;;;18.77;11.65;;;20.40;98.10;;;;;;6208349;23;20427;-70
2023/09/10 07:03:57;;;;;;;16.92;11.35;;;20.40;97.90;;;;;;6207694;23;20502;-70
2023/09/10 07:06:47;;;;;;;16.63;11.23;;;20.50;97.80;;;;;;6208744;23;20339;-70
2023/09/10 07:09:33;;;;;;;15.13;10.65;;;20.60;97.80;;;;;;6209397;23;20119;-70
2023/09/10 07:12:19;;;;;;;13.43;9.93;;;20.70;97.70;;;;;;6209177;23;20020;-70
2023/09/10 07:15:06;;;;;;;15.65;10.27;;;20.70;97.60;;;;;;6209553;23;20107;-70
2023/09/10 07:17:52;;;;;;;14.40;10.43;;;20.80;97.40;;;;;;6209841;23;20013;-70
2023/09/10 07:20:38;;;;;;;13.50;10.73;;;20.90;97.40;;;;;;6209355;23;20497;-70
2023/09/10 07:23:23;;;;;;;14.95;10.75;;;21.00;97.30;;;;;;6211681;23;20454;-71
2023/09/10 07:26:09;;;;;;;14.52;11.75;;;21.10;97.10;;;;;;6212451;23;20036;-71
2023/09/10 07:28:55;;;;;;;16.38;11.30;;;21.20;97.00;;;;;;6210563;23;20013;-71
2023/09/10 07:31:41;;;;;;;14.50;11.07;;;21.30;96.90;;;;;;6211701;23;20095;-69
2023/09/10 07:34:27;;;;;;;12.93;10.43;;;21.40;96.80;;;;;;6209429;23;20287;-70
2023/09/10 07:37:13;;;;;;;13.45;10.00;;;21.50;96.70;;;;;;6212017;23;20111;-70
2023/09/10 07:39:59;;;;;;;19.50;11.65;;;21.50;96.50;;;;;;6210094;23;20082;-70
2023/09/10 07:42:45;;;;;;;14.73;11.07;;;21.70;96.40;;;;;;6210406;23;20028;-69
2023/09/10 07:45:31;;;;;;;13.65;9.13;;;21.70;96.30;;;;;;6210041;23;20040;-69
2023/09/10 07:48:17;;;;;;;11.50;9.68;;;21.80;96.00;;;;;;6212385;23;20009;-68
2023/09/10 07:51:03;;;;;;;14.40;10.32;;;22.00;96.00;;;;;;6212455;23;20009;-68
2023/09/10 07:53:49;;;;;;;12.23;8.75;;;22.00;95.90;;;;;;6210309;23;20012;-68
2023/09/10 07:56:35;;;;;;;10.98;7.20;;;22.10;95.50;;;;;;6211418;23;20439;-68
2023/09/10 07:59:21;;;;;;;10.65;7.55;;;22.30;95.00;;;;;;6213136;23;20545;-67
2023/09/10 08:02:07;;;;;;;10.73;7.00;;;22.40;95.00;;;;;;6212015;23;20145;-68
2023/09/10 08:04:53;;;;;;;11.88;7.10;;;22.50;94.60;;;;;;6211097;23;20013;-68
2023/09/10 08:07:39;;;;;;;9.43;7.50;;;22.50;94.30;;;;;;6212169;23;20011;-68
2023/09/10 08:10:25;;;;;;;9.40;6.45;;;22.70;93.90;;;;;;6212300;23;20168;-68
2023/09/10 08:13:12;;;;;;;9.93;7.13;;;22.80;93.60;;;;;;6213329;23;20103;-68
2023/09/10 08:15:58;;;;;;;9.80;7.50;;;22.80;93.50;;;;;;6212816;23;20004;-68
2023/09/10 08:18:45;;;;;;;10.48;7.28;;;22.90;93.20;;;;;;6211422;23;20008;-68
2023/09/10 08:21:31;;;;;;;9.15;6.72;;;23.00;93.10;;;;;;6208080;23;20506;-68
2023/09/10 08:24:16;;;;;;;12.88;7.43;;;23.10;93.00;;;;;;6211846;23;20013;-68
2023/09/10 08:27:03;;;;;;;11.90;7.18;;;23.20;92.90;;;;;;6212767;23;20001;-69
2023/09/10 08:29:49;;;;;;;14.27;7.18;;;23.30;92.60;;;;;;6211363;23;20639;-70
2023/09/10 08:32:36;;;;;;;9.02;7.07;;;23.40;92.50;;;;;;6212043;23;20016;-70
2023/09/10 08:35:22;;;;;;;9.80;7.32;;;23.40;92.40;;;;;;6215521;23;20003;-70
2023/09/10 08:38:08;;;;;;;9.63;7.80;;;23.50;92.30;;;;;;6212823;23;20008;-70
2023/09/10 08:41:07;;;;;;;13.35;7.80;;;23.60;92.20;;;;;;6210668;23;20524;-71
2023/09/10 08:43:57;;;;;;;12.85;7.15;;;23.70;92.00;;;;;;6210316;23;20005;-70
2023/09/10 08:46:47;;;;;;;10.27;6.65;;;23.80;92.00;;;;;;6209959;23;20320;-71
2023/09/10 08:49:40;;;;;;;9.82;7.30;;;23.90;91.90;;;;;;6210218;23;20435;-71
2023/09/10 08:52:27;;;;;;;9.50;6.38;;;24.00;91.50;;;;;;6209982;23;20106;-70
2023/09/10 08:55:14;;;;;;;14.05;8.20;;;24.10;91.30;;;;;;6210153;23;20032;-72
2023/09/10 08:58:00;;;;;;;10.77;7.45;;;24.20;91.50;;;;;;6210114;23;20087;-71
2023/09/10 09:00:49;;;;;;;11.93;7.63;;;24.30;91.00;;;;;;6209903;23;20461;-71
2023/09/10 09:03:36;;;;;;;11.75;6.35;;;24.30;90.70;;;;;;6210429;23;20179;-70
2023/09/10 09:06:24;;;;;;;10.55;6.70;;;24.50;90.70;;;;;;6212203;23;20012;-68
2023/09/10 09:09:13;;;;;;;7.80;6.13;;;24.50;90.50;;;;;;6210704;23;20351;-70
2023/09/10 09:12:02;;;;;;;8.63;6.07;;;24.70;90.40;;;;;;6209851;23;20016;-68
2023/09/10 09:14:50;;;;;;;9.60;5.88;;;24.70;89.30;;;;;;6209678;23;20012;-69
2023/09/10 09:17:38;;;;;;;10.40;5.78;;;24.80;88.30;;;;;;6210044;23;20005;-69
2023/09/10 09:20:25;;;;;;;10.63;6.70;;;24.90;88.00;;;;;;6210652;23;20039;-72
2023/09/10 09:23:24;;;;;;;8.55;6.40;;;25.00;87.80;;;;;;6209113;23;20378;-67
2023/09/10 09:26:12;;;;;;;9.82;7.05;;;25.10;87.90;;;;;;6210306;23;20005;-72
2023/09/10 09:28:58;;;;;;;8.32;5.85;;;25.30;87.40;;;;;;6210404;23;20441;-72
2023/09/10 09:31:44;;;;;;;10.15;6.70;;;25.30;87.20;;;;;;6211577;23;20021;-76
2023/09/10 09:34:32;;;;;;;8.52;5.70;;;25.50;87.00;;;;;;6212703;23;20047;-72
2023/09/10 09:37:21;;;;;;;10.20;6.63;;;25.50;86.50;;;;;;6210385;23;20075;-74
2023/09/10 09:40:09;;;;;;;7.97;5.53;;;25.60;85.60;;;;;;6210977;23;20008;-70
2023/09/10 09:42:57;;;;;;;8.82;5.30;;;25.70;84.30;;;;;;6211625;23;20002;-75
2023/09/10 09:45:44;;;;;;;7.57;5.03;;;25.80;83.40;;;;;;6209401;23;20015;-74
2023/09/10 09:48:32;;;;;;;8.30;5.05;;;25.90;82.70;;;;;;6211165;23;20072;-72
2023/09/10 09:51:19;;;;;;;6.80;4.95;;;26.00;81.90;;;;;;6211813;23;20411;-72
2023/09/10 09:54:07;;;;;;;9.45;5.50;;;26.10;81.60;;;;;;6207816;23;20087;-77
2023/09/10 09:56:53;;;;;;;6.80;5.10;;;26.20;81.40;;;;;;6208118;23;20564;-73
2023/09/10 09:59:39;;;;;;;8.55;4.88;;;26.30;80.90;;;;;;6210380;23;20012;-72
2023/09/10 10:02:25;;;;;;;8.68;5.35;;;26.50;79.10;;;;;;6211490;23;20099;-72
2023/09/10 10:05:11;;;;;;;8.10;3.97;;;26.60;78.00;;;;;;6211522;23;20012;-72
2023/09/10 10:07:58;;;;;;;5.38;4.05;;;26.70;77.50;;;;;;6208343;23;20442;-73
2023/09/10 10:10:48;;;;;;;8.55;5.05;;;26.70;76.70;;;;;;6209504;23;20001;-73
2023/09/10 10:13:34;;;;;;;7.07;4.57;;;26.80;76.20;;;;;;6208426;23;20013;-68
2023/09/10 10:16:21;;;;;;;6.75;4.25;;;26.90;76.70;;;;;;6210141;23;20061;-82
2023/09/10 10:19:07;;;;;;;5.93;3.95;;;27.00;75.50;;;;;;6211058;23;20004;-81
2023/09/10 10:21:55;;;;;;;6.03;4.22;;;27.10;74.90;;;;;;6210349;23;20009;-80
2023/09/10 10:24:41;;;;;;;4.80;3.25;;;27.10;74.70;;;;;;6210673;23;20339;-78
2023/09/10 10:27:29;;;;;;;7.25;4.57;;;27.20;74.30;;;;;;6212512;23;20055;-79
2023/09/10 10:30:15;;;;;;;5.97;4.18;;;27.30;73.20;;;;;;6209633;23;20458;-79
2023/09/10 10:33:03;;;;;;;10.68;4.38;;;27.40;73.00;;;;;;6210701;23;20024;-78
2023/09/10 10:36:04;;;;;;;11.77;4.03;;;27.40;72.70;;;;;;6209524;23;20067;-79
2023/09/10 10:38:54;;;;;;;6.07;4.13;;;27.50;72.30;;;;;;6208081;23;20013;-79
2023/09/10 10:41:44;;;;;;;6.35;3.83;;;27.60;71.20;;;;;;6208903;23;20004;-81
2023/09/10 10:44:37;;;;;;;7.28;3.92;;;27.70;71.00;;;;;;6209165;23;20084;-77
2023/09/10 10:47:24;;;;;;;5.38;3.85;;;27.80;71.00;;;;;;6209026;23;20000;-79
2023/09/10 10:50:11;;;;;;;7.72;4.68;;;27.90;70.20;;;;;;6210132;23;20013;-81
2023/09/10 10:53:05;;;;;;;8.40;4.60;;;28.00;70.00;;;;;;6209519;23;20103;-82
2023/09/10 10:56:03;;;;;;;9.70;4.45;;;28.10;69.60;;;;;;6209684;23;20020;-82
2023/09/10 10:58:49;;;;;;;6.50;3.88;;;28.20;69.60;;;;;;6212778;23;20008;-80
2023/09/10 11:01:35;;;;;;;4.10;3.33;;;28.20;68.50;;;;;;6210818;23;20111;-82
2023/09/10 11:04:25;;;;;;;6.70;3.95;;;28.30;68.20;;;;;;6210584;23;20013;-81
2023/09/10 11:07:18;;;;;;;6.72;3.60;;;28.40;66.80;;;;;;6213034;23;20084;-81
2023/09/10 11:10:26;;;;;;;5.22;3.53;;;28.50;66.50;;;;;;6212165;23;20066;-81
2023/09/10 11:13:13;;;;;;;5.07;3.80;;;28.60;67.20;;;;;;6211557;23;20699;-85
2023/09/10 11:16:04;;;;;;;4.72;3.55;;;28.60;65.90;;;;;;6212220;23;20032;-84
2023/09/10 11:18:51;;;;;;;4.28;3.08;;;28.70;65.70;;;;;;6212988;23;20453;-78
2023/09/10 11:22:12;;;;;;;11.75;3.60;;;28.70;65.10;;;;;;6210382;23;20066;-83
2023/09/10 11:25:06;;;;;;;7.63;4.10;;;28.80;65.90;;;;;;6122968;23;20010;-83
2023/09/10 11:27:52;;;;;;;4.78;3.55;;;28.90;65.20;;;;;;6214097;23;20757;-83
2023/09/10 11:30:38;;;;;;;4.53;3.50;;;28.90;64.60;;;;;;6211389;23;20088;-83
2023/09/10 11:33:29;;;;;;;5.25;3.42;;;29.00;65.10;;;;;;6213012;23;20040;-83
2023/09/10 11:36:16;;;;;;;7.18;3.85;;;29.00;64.30;;;;;;6210650;23;20333;-83
2023/09/10 11:39:02;;;;;;;5.55;4.10;;;29.10;63.60;;;;;;6211888;23;20342;-91
2023/09/10 11:41:50;;;;;;;5.00;3.42;;;29.10;63.80;;;;;;6213224;23;20350;-86
2023/09/10 11:44:36;;;;;;;5.85;4.07;;;29.20;63.20;;;;;;6211641;23;20124;-86
2023/09/10 11:47:26;;;;;;;4.45;3.22;;;29.20;62.70;;;;;;6213535;23;20009;-86
2023/09/10 11:50:13;;;;;;;5.95;3.20;;;29.20;62.50;;;;;;6210632;23;20084;-86
2023/09/10 11:52:59;;;;;;;8.10;3.65;;;29.30;61.60;;;;;;6210685;23;20439;-87
2023/09/10 11:55:46;;;;;;;7.72;3.65;;;29.30;60.70;;;;;;6214512;23;20088;-89
2023/09/10 11:58:32;;;;;;;7.28;3.58;;;29.40;61.00;;;;;;6214793;23;20012;-89
2023/09/10 12:01:19;;;;;;;5.50;3.47;;;29.40;61.30;;;;;;6220335;23;20009;-89
2023/09/10 12:04:05;;;;;;;9.27;4.38;;;29.40;61.50;;;;;;6242623;23;20020;-89
2023/09/10 12:06:51;;;;;;;5.32;3.72;;;29.50;61.10;;;;;;6241788;23;20012;-84
2023/09/10 12:09:37;;;;;;;6.72;4.20;;;29.50;61.00;;;;;;6234057;23;20096;-87
2023/09/10 12:12:32;;;;;;;6.70;3.67;;;29.50;60.50;;;;;;6240484;23;20031;-84
2023/09/10 12:15:18;;;;;;;6.20;3.00;;;29.60;59.80;;;;;;6224625;23;20013;-90
2023/09/10 12:18:06;;;;;;;4.93;3.08;;;29.60;59.70;;;;;;6214976;23;20001;-85
2023/09/10 12:20:52;;;;;;;4.30;3.72;;;29.60;59.60;;;;;;6211800;23;20004;-86
2023/09/10 12:23:38;;;;;;;5.00;3.47;;;29.60;59.20;;;;;;6213349;23;20076;-88
2023/09/10 12:26:25;;;;;;;4.40;3.42;;;29.60;59.20;;;;;;6213702;23;20001;-89
2023/09/10 12:29:11;;;;;;;5.75;3.80;;;29.60;59.60;;;;;;6211931;23;20012;-85
2023/09/10 12:31:58;;;;;;;5.63;3.88;;;29.70;60.10;;;;;;6211774;23;20106;-87
2023/09/10 12:34:44;;;;;;;4.13;2.95;;;29.70;59.80;;;;;;6214506;23;20445;-89
2023/09/10 12:37:30;;;;;;;5.10;3.53;;;29.70;59.00;;;;;;6217156;23;20012;-90
2023/09/10 12:40:17;;;;;;;5.32;3.70;;;29.80;58.80;;;;;;6216300;23;20036;-90
2023/09/10 12:43:03;;;;;;;9.73;4.53;;;29.80;58.90;;;;;;6211267;23;20039;-87
2023/09/10 12:45:52;;;;;;;4.93;3.72;;;29.90;59.10;;;;;;6215246;23;20005;-91
2023/09/10 12:48:38;;;;;;;5.47;4.13;;;29.90;59.10;;;;;;6214183;23;20009;-89
2023/09/10 12:51:24;;;;;;;5.75;3.88;;;30.00;58.70;;;;;;6212557;23;20005;-88
2023/09/10 12:54:11;;;;;;;5.95;3.13;;;30.10;58.60;;;;;;6212877;23;20418;-89
2023/09/10 12:57:02;;;;;;;7.65;3.45;;;30.10;58.10;;;;;;6210038;23;20072;-85
2023/09/10 12:59:54;;;;;;;5.15;3.75;;;30.20;58.10;;;;;;6209315;23;20426;-81
2023/09/10 13:02:42;;;;;;;6.07;4.03;;;30.20;58.50;;;;;;6211977;23;20008;-83
2023/09/10 13:05:28;;;;;;;4.82;3.40;;;30.30;58.20;;;;;;6209173;23;20011;-82
2023/09/10 13:08:14;;;;;;;5.20;3.55;;;30.40;58.30;;;;;;6212118;23;20083;-81
2023/09/10 13:11:02;;;;;;;4.90;3.45;;;30.40;57.60;;;;;;6211721;23;20000;-81
2023/09/10 13:13:48;;;;;;;5.65;3.50;;;30.50;57.00;;;;;;6211701;23;20011;-88
2023/09/10 13:16:34;;;;;;;5.85;3.60;;;30.50;57.50;;;;;;6212726;23;20005;-84
2023/09/10 13:19:20;;;;;;;5.65;3.60;;;30.60;57.40;;;;;;6212295;23;20304;-81
2023/09/10 13:22:07;;;;;;;6.53;3.50;;;30.60;57.10;;;;;;6212571;23;20027;-82
2023/09/10 13:24:55;;;;;;;5.05;3.38;;;30.60;56.90;;;;;;6209245;23;20009;-81
2023/09/10 13:27:41;;;;;;;5.75;3.58;;;30.70;56.80;;;;;;6210630;23;20032;-82
2023/09/10 13:30:27;;;;;;;6.85;4.00;;;30.70;56.20;;;;;;6211483;23;20012;-81
2023/09/10 13:33:13;;;;;;;7.07;3.72;;;30.80;56.10;;;;;;6212319;23;20024;-79
2023/09/10 13:35:59;;;;;;;5.00;3.50;;;30.70;56.20;;;;;;6209732;23;20131;-81
2023/09/10 13:38:45;;;;;;;6.68;3.83;;;30.80;56.20;;;;;;6211230;23;20012;-82
2023/09/10 13:41:31;;;;;;;7.05;3.35;;;30.90;56.80;;;;;;6212637;23;20070;-80
2023/09/10 13:44:17;;;;;;;6.03;3.40;;;30.90;56.80;;;;;;6209406;23;20009;-84
2023/09/10 13:47:03;;;;;;;5.65;3.53;;;31.00;56.80;;;;;;6208958;23;20008;-83
2023/09/10 13:49:49;;;;;;;7.03;3.58;;;31.00;56.50;;;;;;6211917;23;20028;-81
2023/09/10 13:52:35;;;;;;;7.20;3.65;;;31.10;56.40;;;;;;6210660;23;20328;-80
2023/09/10 13:55:21;;;;;;;4.70;3.72;;;31.20;56.00;;;;;;6211249;23;20009;-80
2023/09/10 13:58:07;;;;;;;5.28;3.38;;;31.20;56.00;;;;;;6211794;23;20055;-80
2023/09/10 14:00:53;;;;;;;4.50;3.28;;;31.20;56.00;;;;;;6210708;23;20088;-82
2023/09/10 14:03:39;;;;;;;5.80;3.33;;;31.30;56.10;;;;;;6210919;23;20005;-86
2023/09/10 14:06:25;;;;;;;6.10;3.70;;;31.30;56.20;;;;;;6212185;23;20087;-88
2023/09/10 14:09:11;;;;;;;8.95;4.60;;;31.30;55.60;;;;;;6211251;23;20044;-81
2023/09/10 14:11:57;;;;;;;6.68;3.83;;;31.30;55.70;;;;;;6210213;23;20025;-84
2023/09/10 14:14:43;;;;;;;6.95;3.70;;;31.40;56.10;;;;;;6211326;23;20087;-84
2023/09/10 14:17:28;;;;;;;4.85;3.47;;;31.40;55.80;;;;;;6210268;23;20517;-83